sensor_id;sensor_type;location;lat;lon;timestamp;temperature;humidity
8910;DHT22;4490;49.072;8.804;2022-11-30T00:00:57;8.20;99.90
8910;DHT22;4490;49.072;8.804;2022-11-30T00:03:23;8.20;99.90
8910;DHT22;4490;49.072;8.804;2022-11-30T00:05:48;8.20;99.90
8910;DHT22;4490;49.072;8.804;2022-11-30T00:08:14;8.20;99.90
8910;DHT22;4490;49.072;8.804;2022-11-30T00:10:40;8.20;99.90
8910;DHT22;4490;49.072;8.804;2022-11-30T00:13:07;8.30;99.90
8910;DHT22;4490;49.072;8.804;2022-11-30T00:15:35;8.30;99.90
8910;DHT22;4490;49.072;8.804;2022-11-30T00:18:01;8.30;99.90
8910;DHT22;4490;49.072;8.804;2022-11-30T00:20:26;8.30;99.90
8910;DHT22;4490;49.072;8.804;2022-11-30T00:22:54;8.30;99.90
8910;DHT22;4490;49.072;8.804;2022-11-30T00:25:21;8.30;99.90
8910;DHT22;4490;49.072;8.804;2022-11-30T00:27:46;8.30;99.90
8910;DHT22;4490;49.072;8.804;2022-11-30T00:30:12;8.40;99.90
8910;DHT22;4490;49.072;8.804;2022-11-30T00:32:38;8.40;99.90
8910;DHT22;4490;49.072;8.804;2022-11-30T00:35:04;8.40;99.90
8910;DHT22;4490;49.072;8.804;2022-11-30T00:37:30;8.40;99.90
8910;DHT22;4490;49.072;8.804;2022-11-30T00:39:55;8.40;99.90
8910;DHT22;4490;49.072;8.804;2022-11-30T00:42:21;8.40;99.90
8910;DHT22;4490;49.072;8.804;2022-11-30T00:44:46;8.40;99.90
8910;DHT22;4490;49.072;8.804;2022-11-30T00:47:12;8.40;99.90
8910;DHT22;4490;49.072;8.804;2022-11-30T00:49:38;8.40;99.90
8910;DHT22;4490;49.072;8.804;2022-11-30T00:52:04;8.40;99.90
8910;DHT22;4490;49.072;8.804;2022-11-30T00:54:30;8.40;99.90
8910;DHT22;4490;49.072;8.804;2022-11-30T00:56:55;8.40;99.90
8910;DHT22;4490;49.072;8.804;2022-11-30T00:59:21;8.40;99.90
8910;DHT22;4490;49.072;8.804;2022-11-30T01:01:46;8.40;99.90
8910;DHT22;4490;49.072;8.804;2022-11-30T01:04:12;8.40;99.90
8910;DHT22;4490;49.072;8.804;2022-11-30T01:06:38;8.40;99.90
8910;DHT22;4490;49.072;8.804;2022-11-30T01:09:03;8.40;99.90
8910;DHT22;4490;49.072;8.804;2022-11-30T01:11:30;8.40;99.90
8910;DHT22;4490;49.072;8.804;2022-11-30T01:13:57;8.40;99.90
8910;DHT22;4490;49.072;8.804;2022-11-30T01:16:25;8.40;99.90
8910;DHT22;4490;49.072;8.804;2022-11-30T01:18:51;8.40;99.90
8910;DHT22;4490;49.072;8.804;2022-11-30T01:21:19;8.40;99.90
8910;DHT22;4490;49.072;8.804;2022-11-30T01:23:46;8.40;99.90
8910;DHT22;4490;49.072;8.804;2022-11-30T01:26:12;8.40;99.90
8910;DHT22;4490;49.072;8.804;2022-11-30T01:28:38;8.50;99.90
8910;DHT22;4490;49.072;8.804;2022-11-30T01:31:11;8.50;99.90
8910;DHT22;4490;49.072;8.804;2022-11-30T01:33:36;8.50;99.90
8910;DHT22;4490;49.072;8.804;2022-11-30T01:36:13;8.50;99.90
8910;DHT22;4490;49.072;8.804;2022-11-30T01:38:44;8.50;99.90
8910;DHT22;4490;49.072;8.804;2022-11-30T01:41:12;8.50;99.90
8910;DHT22;4490;49.072;8.804;2022-11-30T01:46:25;8.50;99.90
8910;DHT22;4490;49.072;8.804;2022-11-30T01:49:05;8.60;99.90
8910;DHT22;4490;49.072;8.804;2022-11-30T01:51:52;8.50;99.90
8910;DHT22;4490;49.072;8.804;2022-11-30T01:54:24;8.50;99.90
8910;DHT22;4490;49.072;8.804;2022-11-30T01:56:55;8.50;99.90
8910;DHT22;4490;49.072;8.804;2022-11-30T01:59:23;8.50;99.90
8910;DHT22;4490;49.072;8.804;2022-11-30T02:01:49;8.50;99.90
8910;DHT22;4490;49.072;8.804;2022-11-30T02:04:21;8.50;99.90
8910;DHT22;4490;49.072;8.804;2022-11-30T02:06:49;8.50;99.90
8910;DHT22;4490;49.072;8.804;2022-11-30T02:09:17;8.50;99.90
8910;DHT22;4490;49.072;8.804;2022-11-30T02:11:43;8.50;99.90
8910;DHT22;4490;49.072;8.804;2022-11-30T02:27:37;8.50;99.90
8910;DHT22;4490;49.072;8.804;2022-11-30T02:30:20;8.50;99.90
8910;DHT22;4490;49.072;8.804;2022-11-30T02:32:47;8.50;99.90
8910;DHT22;4490;49.072;8.804;2022-11-30T02:35:18;8.50;99.90
8910;DHT22;4490;49.072;8.804;2022-11-30T02:37:45;8.50;99.90
8910;DHT22;4490;49.072;8.804;2022-11-30T02:40:16;8.50;99.90
8910;DHT22;4490;49.072;8.804;2022-11-30T02:42:42;8.50;99.90
8910;DHT22;4490;49.072;8.804;2022-11-30T02:45:08;8.50;99.90
8910;DHT22;4490;49.072;8.804;2022-11-30T02:48:03;8.50;99.90
8910;DHT22;4490;49.072;8.804;2022-11-30T02:50:42;8.50;99.90
8910;DHT22;4490;49.072;8.804;2022-11-30T02:53:09;8.50;99.90
8910;DHT22;4490;49.072;8.804;2022-11-30T02:55:35;8.50;99.90
8910;DHT22;4490;49.072;8.804;2022-11-30T02:58:01;8.50;99.90
8910;DHT22;4490;49.072;8.804;2022-11-30T03:00:27;8.50;99.90
8910;DHT22;4490;49.072;8.804;2022-11-30T03:02:53;8.50;99.90
8910;DHT22;4490;49.072;8.804;2022-11-30T03:05:19;8.50;99.90
8910;DHT22;4490;49.072;8.804;2022-11-30T03:07:45;8.50;99.90
8910;DHT22;4490;49.072;8.804;2022-11-30T03:10:10;8.40;99.90
8910;DHT22;4490;49.072;8.804;2022-11-30T03:12:36;8.40;99.90
8910;DHT22;4490;49.072;8.804;2022-11-30T03:15:03;8.40;99.90
8910;DHT22;4490;49.072;8.804;2022-11-30T03:17:29;8.40;99.90
8910;DHT22;4490;49.072;8.804;2022-11-30T03:19:54;8.40;99.90
8910;DHT22;4490;49.072;8.804;2022-11-30T03:22:20;8.40;99.90
8910;DHT22;4490;49.072;8.804;2022-11-30T03:24:45;8.40;99.90
8910;DHT22;4490;49.072;8.804;2022-11-30T03:27:11;8.40;99.90
8910;DHT22;4490;49.072;8.804;2022-11-30T03:29:37;8.40;99.90
8910;DHT22;4490;49.072;8.804;2022-11-30T03:32:04;8.40;99.90
8910;DHT22;4490;49.072;8.804;2022-11-30T03:34:29;8.40;99.90
8910;DHT22;4490;49.072;8.804;2022-11-30T03:36:55;8.40;99.90
8910;DHT22;4490;49.072;8.804;2022-11-30T03:39:21;8.40;99.90
8910;DHT22;4490;49.072;8.804;2022-11-30T03:41:49;8.40;99.90
8910;DHT22;4490;49.072;8.804;2022-11-30T03:44:15;8.40;99.90
8910;DHT22;4490;49.072;8.804;2022-11-30T03:46:40;8.40;99.90
8910;DHT22;4490;49.072;8.804;2022-11-30T03:49:06;8.40;99.90
8910;DHT22;4490;49.072;8.804;2022-11-30T03:51:32;8.40;99.90
8910;DHT22;4490;49.072;8.804;2022-11-30T03:53:57;8.30;99.90
8910;DHT22;4490;49.072;8.804;2022-11-30T03:56:23;8.30;99.90
8910;DHT22;4490;49.072;8.804;2022-11-30T03:58:49;8.30;99.90
8910;DHT22;4490;49.072;8.804;2022-11-30T04:01:17;8.30;99.90
8910;DHT22;4490;49.072;8.804;2022-11-30T04:03:43;8.30;99.90
8910;DHT22;4490;49.072;8.804;2022-11-30T04:06:10;8.20;99.90
8910;DHT22;4490;49.072;8.804;2022-11-30T04:08:36;8.20;99.90
8910;DHT22;4490;49.072;8.804;2022-11-30T04:11:03;8.10;99.90
8910;DHT22;4490;49.072;8.804;2022-11-30T04:13:31;8.10;99.90
8910;DHT22;4490;49.072;8.804;2022-11-30T04:15:57;8.10;99.90
8910;DHT22;4490;49.072;8.804;2022-11-30T04:18:24;8.10;99.90
8910;DHT22;4490;49.072;8.804;2022-11-30T04:20:54;8.10;99.90
8910;DHT22;4490;49.072;8.804;2022-11-30T04:23:21;8.00;99.90
8910;DHT22;4490;49.072;8.804;2022-11-30T04:25:47;8.00;99.90
8910;DHT22;4490;49.072;8.804;2022-11-30T04:28:14;8.00;99.90
8910;DHT22;4490;49.072;8.804;2022-11-30T04:30:40;8.00;99.90
8910;DHT22;4490;49.072;8.804;2022-11-30T04:33:06;8.00;99.90
8910;DHT22;4490;49.072;8.804;2022-11-30T04:35:32;8.00;99.90
8910;DHT22;4490;49.072;8.804;2022-11-30T04:37:59;7.90;99.90
8910;DHT22;4490;49.072;8.804;2022-11-30T04:40:24;7.90;99.90
8910;DHT22;4490;49.072;8.804;2022-11-30T04:42:50;7.90;99.90
8910;DHT22;4490;49.072;8.804;2022-11-30T04:45:16;7.90;99.90
8910;DHT22;4490;49.072;8.804;2022-11-30T04:47:41;7.90;99.90
8910;DHT22;4490;49.072;8.804;2022-11-30T04:50:07;7.90;99.90
8910;DHT22;4490;49.072;8.804;2022-11-30T04:52:33;7.90;99.90
8910;DHT22;4490;49.072;8.804;2022-11-30T04:54:59;7.90;99.90
8910;DHT22;4490;49.072;8.804;2022-11-30T04:57:25;7.90;99.90
8910;DHT22;4490;49.072;8.804;2022-11-30T04:59:51;7.90;99.90
8910;DHT22;4490;49.072;8.804;2022-11-30T05:02:17;7.90;99.90
8910;DHT22;4490;49.072;8.804;2022-11-30T05:04:42;7.90;99.90
8910;DHT22;4490;49.072;8.804;2022-11-30T05:07:08;7.90;99.90
8910;DHT22;4490;49.072;8.804;2022-11-30T05:09:34;7.90;99.90
8910;DHT22;4490;49.072;8.804;2022-11-30T05:11:59;7.90;99.90
8910;DHT22;4490;49.072;8.804;2022-11-30T05:14:25;7.90;99.90
8910;DHT22;4490;49.072;8.804;2022-11-30T05:16:51;7.90;99.90
8910;DHT22;4490;49.072;8.804;2022-11-30T05:19:17;7.90;99.90
8910;DHT22;4490;49.072;8.804;2022-11-30T05:21:43;7.90;99.90
8910;DHT22;4490;49.072;8.804;2022-11-30T05:24:09;7.90;99.90
8910;DHT22;4490;49.072;8.804;2022-11-30T05:26:35;7.90;99.90
8910;DHT22;4490;49.072;8.804;2022-11-30T05:29:02;7.90;99.90
8910;DHT22;4490;49.072;8.804;2022-11-30T05:31:28;7.90;99.90
8910;DHT22;4490;49.072;8.804;2022-11-30T05:33:53;7.90;99.90
8910;DHT22;4490;49.072;8.804;2022-11-30T05:36:19;7.90;99.90
8910;DHT22;4490;49.072;8.804;2022-11-30T05:38:45;7.90;99.90
8910;DHT22;4490;49.072;8.804;2022-11-30T05:41:11;7.90;99.90
8910;DHT22;4490;49.072;8.804;2022-11-30T05:43:38;7.90;99.90
8910;DHT22;4490;49.072;8.804;2022-11-30T05:46:05;7.80;99.90
8910;DHT22;4490;49.072;8.804;2022-11-30T05:48:31;7.80;99.90
8910;DHT22;4490;49.072;8.804;2022-11-30T05:51:14;7.80;99.90
8910;DHT22;4490;49.072;8.804;2022-11-30T05:53:41;7.80;99.90
8910;DHT22;4490;49.072;8.804;2022-11-30T05:56:10;7.80;99.90
8910;DHT22;4490;49.072;8.804;2022-11-30T05:58:36;7.80;99.90
8910;DHT22;4490;49.072;8.804;2022-11-30T06:01:03;7.70;99.90
8910;DHT22;4490;49.072;8.804;2022-11-30T06:03:29;7.70;99.90
8910;DHT22;4490;49.072;8.804;2022-11-30T06:05:55;7.70;99.90
8910;DHT22;4490;49.072;8.804;2022-11-30T06:08:20;7.70;99.90
8910;DHT22;4490;49.072;8.804;2022-11-30T06:10:46;7.70;99.90
8910;DHT22;4490;49.072;8.804;2022-11-30T06:13:14;7.70;99.90
8910;DHT22;4490;49.072;8.804;2022-11-30T06:15:40;7.70;99.90
8910;DHT22;4490;49.072;8.804;2022-11-30T06:18:08;7.70;99.90
8910;DHT22;4490;49.072;8.804;2022-11-30T06:20:34;7.70;99.90
8910;DHT22;4490;49.072;8.804;2022-11-30T06:22:59;7.70;99.90
8910;DHT22;4490;49.072;8.804;2022-11-30T06:25:26;7.70;99.90
8910;DHT22;4490;49.072;8.804;2022-11-30T06:27:52;7.70;99.90
8910;DHT22;4490;49.072;8.804;2022-11-30T06:30:18;7.70;99.90
8910;DHT22;4490;49.072;8.804;2022-11-30T06:32:49;7.70;99.90
8910;DHT22;4490;49.072;8.804;2022-11-30T06:35:15;7.70;99.90
8910;DHT22;4490;49.072;8.804;2022-11-30T06:37:41;7.60;99.90
8910;DHT22;4490;49.072;8.804;2022-11-30T06:40:08;7.60;99.90
8910;DHT22;4490;49.072;8.804;2022-11-30T06:42:35;7.60;99.90
8910;DHT22;4490;49.072;8.804;2022-11-30T06:45:01;7.60;99.90
8910;DHT22;4490;49.072;8.804;2022-11-30T06:47:26;7.60;99.90
8910;DHT22;4490;49.072;8.804;2022-11-30T06:49:52;7.70;99.90
8910;DHT22;4490;49.072;8.804;2022-11-30T06:52:18;7.70;99.90
8910;DHT22;4490;49.072;8.804;2022-11-30T06:54:45;7.70;99.90
8910;DHT22;4490;49.072;8.804;2022-11-30T06:57:10;7.70;99.90
8910;DHT22;4490;49.072;8.804;2022-11-30T06:59:36;7.70;99.90
8910;DHT22;4490;49.072;8.804;2022-11-30T07:02:10;7.70;99.90
8910;DHT22;4490;49.072;8.804;2022-11-30T07:04:35;7.70;99.90
8910;DHT22;4490;49.072;8.804;2022-11-30T07:07:01;7.70;99.90
8910;DHT22;4490;49.072;8.804;2022-11-30T07:09:27;7.70;99.90
8910;DHT22;4490;49.072;8.804;2022-11-30T07:11:52;7.70;99.90
8910;DHT22;4490;49.072;8.804;2022-11-30T07:14:18;7.70;99.90
8910;DHT22;4490;49.072;8.804;2022-11-30T07:16:43;7.70;99.90
8910;DHT22;4490;49.072;8.804;2022-11-30T07:19:09;7.70;99.90
8910;DHT22;4490;49.072;8.804;2022-11-30T07:21:35;7.70;99.90
8910;DHT22;4490;49.072;8.804;2022-11-30T07:24:00;7.70;99.90
8910;DHT22;4490;49.072;8.804;2022-11-30T07:26:45;7.70;99.90
8910;DHT22;4490;49.072;8.804;2022-11-30T07:29:10;7.80;99.90
8910;DHT22;4490;49.072;8.804;2022-11-30T07:31:36;7.80;99.90
8910;DHT22;4490;49.072;8.804;2022-11-30T07:34:05;7.80;99.90
8910;DHT22;4490;49.072;8.804;2022-11-30T07:36:32;7.80;99.90
8910;DHT22;4490;49.072;8.804;2022-11-30T07:38:58;7.80;99.90
8910;DHT22;4490;49.072;8.804;2022-11-30T07:41:24;7.80;99.90
8910;DHT22;4490;49.072;8.804;2022-11-30T07:43:50;7.90;99.90
8910;DHT22;4490;49.072;8.804;2022-11-30T07:46:16;7.90;99.90
8910;DHT22;4490;49.072;8.804;2022-11-30T07:48:43;7.90;99.90
8910;DHT22;4490;49.072;8.804;2022-11-30T07:51:15;7.90;99.90
8910;DHT22;4490;49.072;8.804;2022-11-30T07:53:41;7.90;99.90
8910;DHT22;4490;49.072;8.804;2022-11-30T07:56:09;7.90;99.90
8910;DHT22;4490;49.072;8.804;2022-11-30T07:58:35;7.90;99.90
8910;DHT22;4490;49.072;8.804;2022-11-30T08:01:07;7.90;99.90
8910;DHT22;4490;49.072;8.804;2022-11-30T08:03:33;7.90;99.90
8910;DHT22;4490;49.072;8.804;2022-11-30T08:06:02;7.90;99.90
8910;DHT22;4490;49.072;8.804;2022-11-30T08:08:37;7.90;99.90
8910;DHT22;4490;49.072;8.804;2022-11-30T08:11:03;7.90;99.90
8910;DHT22;4490;49.072;8.804;2022-11-30T08:13:29;7.90;99.90
8910;DHT22;4490;49.072;8.804;2022-11-30T08:16:00;7.90;99.90
8910;DHT22;4490;49.072;8.804;2022-11-30T08:18:26;7.90;99.90
8910;DHT22;4490;49.072;8.804;2022-11-30T08:20:59;7.90;99.90
8910;DHT22;4490;49.072;8.804;2022-11-30T08:23:45;7.90;99.90
8910;DHT22;4490;49.072;8.804;2022-11-30T08:26:13;8.00;99.90
8910;DHT22;4490;49.072;8.804;2022-11-30T08:28:40;8.00;99.90
8910;DHT22;4490;49.072;8.804;2022-11-30T08:31:10;8.00;99.90
8910;DHT22;4490;49.072;8.804;2022-11-30T08:33:36;8.00;99.90
8910;DHT22;4490;49.072;8.804;2022-11-30T08:36:10;8.00;99.90
8910;DHT22;4490;49.072;8.804;2022-11-30T08:38:36;8.00;99.90
8910;DHT22;4490;49.072;8.804;2022-11-30T08:41:03;8.00;99.90
8910;DHT22;4490;49.072;8.804;2022-11-30T08:43:29;8.00;99.90
8910;DHT22;4490;49.072;8.804;2022-11-30T08:45:54;8.00;99.90
8910;DHT22;4490;49.072;8.804;2022-11-30T08:48:20;8.00;99.90
8910;DHT22;4490;49.072;8.804;2022-11-30T08:50:46;8.00;99.90
8910;DHT22;4490;49.072;8.804;2022-11-30T08:53:11;8.00;99.90
8910;DHT22;4490;49.072;8.804;2022-11-30T08:55:37;7.90;99.90
8910;DHT22;4490;49.072;8.804;2022-11-30T08:58:03;8.00;99.90
8910;DHT22;4490;49.072;8.804;2022-11-30T09:00:28;8.00;99.90
8910;DHT22;4490;49.072;8.804;2022-11-30T09:02:55;8.00;99.90
8910;DHT22;4490;49.072;8.804;2022-11-30T09:05:20;8.00;99.90
8910;DHT22;4490;49.072;8.804;2022-11-30T09:07:46;8.00;99.90
8910;DHT22;4490;49.072;8.804;2022-11-30T09:10:12;8.00;99.90
8910;DHT22;4490;49.072;8.804;2022-11-30T09:12:39;8.10;99.90
8910;DHT22;4490;49.072;8.804;2022-11-30T09:15:06;8.10;99.90
8910;DHT22;4490;49.072;8.804;2022-11-30T09:17:32;8.10;99.90
8910;DHT22;4490;49.072;8.804;2022-11-30T09:19:58;8.10;99.90
8910;DHT22;4490;49.072;8.804;2022-11-30T09:22:24;8.10;99.90
8910;DHT22;4490;49.072;8.804;2022-11-30T09:24:50;8.10;99.90
8910;DHT22;4490;49.072;8.804;2022-11-30T09:27:15;8.10;99.90
8910;DHT22;4490;49.072;8.804;2022-11-30T09:29:41;8.20;99.90
8910;DHT22;4490;49.072;8.804;2022-11-30T09:32:07;8.20;99.90
8910;DHT22;4490;49.072;8.804;2022-11-30T09:34:33;8.20;99.90
8910;DHT22;4490;49.072;8.804;2022-11-30T09:36:58;8.20;99.90
8910;DHT22;4490;49.072;8.804;2022-11-30T09:39:24;8.30;99.90
8910;DHT22;4490;49.072;8.804;2022-11-30T09:50:02;8.30;99.90
8910;DHT22;4490;49.072;8.804;2022-11-30T09:52:51;8.30;99.90
8910;DHT22;4490;49.072;8.804;2022-11-30T09:55:43;8.30;99.90
8910;DHT22;4490;49.072;8.804;2022-11-30T10:00:59;8.30;99.90
8910;DHT22;4490;49.072;8.804;2022-11-30T10:03:25;8.30;99.90
8910;DHT22;4490;49.072;8.804;2022-11-30T10:06:06;8.30;99.90
8910;DHT22;4490;49.072;8.804;2022-11-30T10:11:40;8.40;99.90
8910;DHT22;4490;49.072;8.804;2022-11-30T10:17:07;8.50;99.90
8910;DHT22;4490;49.072;8.804;2022-11-30T10:20:12;8.50;99.90
8910;DHT22;4490;49.072;8.804;2022-11-30T10:25:55;8.50;99.90
8910;DHT22;4490;49.072;8.804;2022-11-30T10:31:13;8.60;99.90
8910;DHT22;4490;49.072;8.804;2022-11-30T10:33:47;8.60;99.90
8910;DHT22;4490;49.072;8.804;2022-11-30T10:36:38;8.60;99.90
8910;DHT22;4490;49.072;8.804;2022-11-30T10:39:18;8.70;99.90
8910;DHT22;4490;49.072;8.804;2022-11-30T10:41:50;8.70;99.90
8910;DHT22;4490;49.072;8.804;2022-11-30T10:44:27;8.70;99.90
8910;DHT22;4490;49.072;8.804;2022-11-30T10:46:57;8.80;99.90
8910;DHT22;4490;49.072;8.804;2022-11-30T10:49:24;8.70;99.90
8910;DHT22;4490;49.072;8.804;2022-11-30T10:51:55;8.80;99.90
8910;DHT22;4490;49.072;8.804;2022-11-30T10:54:22;8.80;99.90
8910;DHT22;4490;49.072;8.804;2022-11-30T10:56:48;8.80;99.90
8910;DHT22;4490;49.072;8.804;2022-11-30T10:59:25;8.90;99.90
8910;DHT22;4490;49.072;8.804;2022-11-30T11:01:52;9.00;99.90
8910;DHT22;4490;49.072;8.804;2022-11-30T11:06:51;9.20;99.90
8910;DHT22;4490;49.072;8.804;2022-11-30T11:09:38;9.20;99.90
8910;DHT22;4490;49.072;8.804;2022-11-30T11:14:44;9.30;99.90
8910;DHT22;4490;49.072;8.804;2022-11-30T11:19:46;9.20;99.90
8910;DHT22;4490;49.072;8.804;2022-11-30T11:24:41;9.20;99.90
8910;DHT22;4490;49.072;8.804;2022-11-30T11:27:25;9.20;99.90
8910;DHT22;4490;49.072;8.804;2022-11-30T11:30:05;9.20;99.90
8910;DHT22;4490;49.072;8.804;2022-11-30T11:32:32;9.20;99.90
8910;DHT22;4490;49.072;8.804;2022-11-30T11:34:58;9.10;99.90
8910;DHT22;4490;49.072;8.804;2022-11-30T11:37:29;9.10;99.90
8910;DHT22;4490;49.072;8.804;2022-11-30T11:42:40;9.20;99.90
8910;DHT22;4490;49.072;8.804;2022-11-30T11:45:19;9.20;99.90
8910;DHT22;4490;49.072;8.804;2022-11-30T11:47:45;9.20;99.90
8910;DHT22;4490;49.072;8.804;2022-11-30T11:52:48;9.20;99.90
8910;DHT22;4490;49.072;8.804;2022-11-30T11:55:18;9.20;99.90
8910;DHT22;4490;49.072;8.804;2022-11-30T11:57:55;9.20;99.90
8910;DHT22;4490;49.072;8.804;2022-11-30T12:00:23;9.10;99.90
8910;DHT22;4490;49.072;8.804;2022-11-30T12:02:55;9.10;99.90
8910;DHT22;4490;49.072;8.804;2022-11-30T12:10:54;9.00;99.90
8910;DHT22;4490;49.072;8.804;2022-11-30T12:13:26;9.00;99.90
8910;DHT22;4490;49.072;8.804;2022-11-30T12:18:59;9.00;99.90
8910;DHT22;4490;49.072;8.804;2022-11-30T12:29:21;8.80;99.90
8910;DHT22;4490;49.072;8.804;2022-11-30T12:34:46;8.90;99.90
8910;DHT22;4490;49.072;8.804;2022-11-30T12:45:34;8.90;99.90
8910;DHT22;4490;49.072;8.804;2022-11-30T12:55:46;8.90;99.90
8910;DHT22;4490;49.072;8.804;2022-11-30T13:06:13;9.00;99.90
8910;DHT22;4490;49.072;8.804;2022-11-30T13:09:17;9.00;99.90
8910;DHT22;4490;49.072;8.804;2022-11-30T13:11:48;9.00;99.90
8910;DHT22;4490;49.072;8.804;2022-11-30T13:14:22;8.90;99.90
8910;DHT22;4490;49.072;8.804;2022-11-30T13:16:53;9.00;99.90
8910;DHT22;4490;49.072;8.804;2022-11-30T13:19:32;9.00;99.90
8910;DHT22;4490;49.072;8.804;2022-11-30T13:22:08;9.00;99.90
8910;DHT22;4490;49.072;8.804;2022-11-30T13:24:41;9.00;99.90
8910;DHT22;4490;49.072;8.804;2022-11-30T13:27:20;8.90;99.90
8910;DHT22;4490;49.072;8.804;2022-11-30T13:30:08;9.00;99.90
8910;DHT22;4490;49.072;8.804;2022-11-30T13:32:37;9.00;99.90
8910;DHT22;4490;49.072;8.804;2022-11-30T13:40:40;9.00;99.90
8910;DHT22;4490;49.072;8.804;2022-11-30T13:43:15;8.90;99.90
8910;DHT22;4490;49.072;8.804;2022-11-30T13:45:42;8.90;99.90
8910;DHT22;4490;49.072;8.804;2022-11-30T13:48:46;9.00;99.90
8910;DHT22;4490;49.072;8.804;2022-11-30T13:51:15;9.00;99.90
8910;DHT22;4490;49.072;8.804;2022-11-30T13:57:02;9.00;99.90
8910;DHT22;4490;49.072;8.804;2022-11-30T13:59:33;8.90;99.90
8910;DHT22;4490;49.072;8.804;2022-11-30T14:23:07;8.90;99.90
8910;DHT22;4490;49.072;8.804;2022-11-30T14:25:35;8.90;99.90
8910;DHT22;4490;49.072;8.804;2022-11-30T14:28:04;8.90;99.90
8910;DHT22;4490;49.072;8.804;2022-11-30T14:30:32;8.80;99.90
8910;DHT22;4490;49.072;8.804;2022-11-30T14:33:04;8.80;99.90
8910;DHT22;4490;49.072;8.804;2022-11-30T14:35:31;8.80;99.90
8910;DHT22;4490;49.072;8.804;2022-11-30T14:37:59;8.80;99.90
8910;DHT22;4490;49.072;8.804;2022-11-30T14:40:27;8.80;99.90
8910;DHT22;4490;49.072;8.804;2022-11-30T14:42:59;8.80;99.90
8910;DHT22;4490;49.072;8.804;2022-11-30T14:45:28;8.80;99.90
8910;DHT22;4490;49.072;8.804;2022-11-30T14:48:12;8.80;99.90
8910;DHT22;4490;49.072;8.804;2022-11-30T14:51:00;8.80;99.90
8910;DHT22;4490;49.072;8.804;2022-11-30T14:53:59;8.80;99.90
8910;DHT22;4490;49.072;8.804;2022-11-30T14:56:31;8.80;99.90
8910;DHT22;4490;49.072;8.804;2022-11-30T15:01:43;8.70;99.90
8910;DHT22;4490;49.072;8.804;2022-11-30T15:04:12;8.70;99.90
8910;DHT22;4490;49.072;8.804;2022-11-30T15:06:39;8.70;99.90
8910;DHT22;4490;49.072;8.804;2022-11-30T15:09:13;8.70;99.90
8910;DHT22;4490;49.072;8.804;2022-11-30T15:11:42;8.70;99.90
8910;DHT22;4490;49.072;8.804;2022-11-30T15:14:10;8.70;99.90
8910;DHT22;4490;49.072;8.804;2022-11-30T15:16:36;8.60;99.90
8910;DHT22;4490;49.072;8.804;2022-11-30T15:21:47;8.70;99.90
8910;DHT22;4490;49.072;8.804;2022-11-30T15:24:13;8.60;99.90
8910;DHT22;4490;49.072;8.804;2022-11-30T15:29:24;8.60;99.90
8910;DHT22;4490;49.072;8.804;2022-11-30T15:31:52;8.60;99.90
8910;DHT22;4490;49.072;8.804;2022-11-30T15:34:43;8.60;99.90
8910;DHT22;4490;49.072;8.804;2022-11-30T15:37:11;8.60;99.90
8910;DHT22;4490;49.072;8.804;2022-11-30T15:39:37;8.60;99.90
8910;DHT22;4490;49.072;8.804;2022-11-30T15:42:04;8.60;99.90
8910;DHT22;4490;49.072;8.804;2022-11-30T15:44:41;8.60;99.90
8910;DHT22;4490;49.072;8.804;2022-11-30T15:49:54;8.50;99.90
8910;DHT22;4490;49.072;8.804;2022-11-30T15:52:28;8.50;99.90
8910;DHT22;4490;49.072;8.804;2022-11-30T15:54:56;8.50;99.90
8910;DHT22;4490;49.072;8.804;2022-11-30T15:57:24;8.50;99.90
8910;DHT22;4490;49.072;8.804;2022-11-30T16:00:22;8.50;99.90
8910;DHT22;4490;49.072;8.804;2022-11-30T16:02:48;8.50;99.90
8910;DHT22;4490;49.072;8.804;2022-11-30T16:07:54;8.50;99.90
8910;DHT22;4490;49.072;8.804;2022-11-30T16:10:40;8.50;99.90
8910;DHT22;4490;49.072;8.804;2022-11-30T16:13:13;8.50;99.90
8910;DHT22;4490;49.072;8.804;2022-11-30T16:15:43;8.50;99.90
8910;DHT22;4490;49.072;8.804;2022-11-30T16:20:45;8.50;99.90
8910;DHT22;4490;49.072;8.804;2022-11-30T16:23:12;8.50;99.90
8910;DHT22;4490;49.072;8.804;2022-11-30T16:25:40;8.50;99.90
8910;DHT22;4490;49.072;8.804;2022-11-30T16:28:08;8.50;99.90
8910;DHT22;4490;49.072;8.804;2022-11-30T16:30:34;8.50;99.90
8910;DHT22;4490;49.072;8.804;2022-11-30T16:32:59;8.40;99.90
8910;DHT22;4490;49.072;8.804;2022-11-30T16:35:39;8.40;99.90
8910;DHT22;4490;49.072;8.804;2022-11-30T16:38:05;8.40;99.90
8910;DHT22;4490;49.072;8.804;2022-11-30T16:40:32;8.30;99.90
8910;DHT22;4490;49.072;8.804;2022-11-30T16:42:57;8.30;99.90
8910;DHT22;4490;49.072;8.804;2022-11-30T16:45:24;8.30;99.90
8910;DHT22;4490;49.072;8.804;2022-11-30T16:47:51;8.30;99.90
8910;DHT22;4490;49.072;8.804;2022-11-30T16:50:18;8.30;99.90
8910;DHT22;4490;49.072;8.804;2022-11-30T16:52:44;8.30;99.90
8910;DHT22;4490;49.072;8.804;2022-11-30T16:55:14;8.30;99.90
8910;DHT22;4490;49.072;8.804;2022-11-30T16:57:40;8.30;99.90
8910;DHT22;4490;49.072;8.804;2022-11-30T17:00:07;8.20;99.90
8910;DHT22;4490;49.072;8.804;2022-11-30T17:02:33;8.20;99.90
8910;DHT22;4490;49.072;8.804;2022-11-30T17:05:00;8.20;99.90
8910;DHT22;4490;49.072;8.804;2022-11-30T17:07:25;8.20;99.90
8910;DHT22;4490;49.072;8.804;2022-11-30T17:09:51;8.10;99.90
8910;DHT22;4490;49.072;8.804;2022-11-30T17:12:17;8.10;99.90
8910;DHT22;4490;49.072;8.804;2022-11-30T17:14:42;8.10;99.90
8910;DHT22;4490;49.072;8.804;2022-11-30T17:17:08;8.10;99.90
8910;DHT22;4490;49.072;8.804;2022-11-30T17:19:34;8.00;99.90
8910;DHT22;4490;49.072;8.804;2022-11-30T17:22:00;8.10;99.90
8910;DHT22;4490;49.072;8.804;2022-11-30T17:24:27;8.10;99.90
8910;DHT22;4490;49.072;8.804;2022-11-30T17:26:53;8.00;99.90
8910;DHT22;4490;49.072;8.804;2022-11-30T17:29:18;8.00;99.90
8910;DHT22;4490;49.072;8.804;2022-11-30T17:31:44;8.00;99.90
8910;DHT22;4490;49.072;8.804;2022-11-30T17:34:10;8.00;99.90
8910;DHT22;4490;49.072;8.804;2022-11-30T17:36:36;8.00;99.90
8910;DHT22;4490;49.072;8.804;2022-11-30T17:39:06;8.00;99.90
8910;DHT22;4490;49.072;8.804;2022-11-30T17:41:32;8.00;99.90
8910;DHT22;4490;49.072;8.804;2022-11-30T17:43:57;7.90;99.90
8910;DHT22;4490;49.072;8.804;2022-11-30T17:46:23;8.00;99.90
8910;DHT22;4490;49.072;8.804;2022-11-30T17:48:49;8.00;99.90
8910;DHT22;4490;49.072;8.804;2022-11-30T17:51:15;7.90;99.90
8910;DHT22;4490;49.072;8.804;2022-11-30T17:53:42;7.90;99.90
8910;DHT22;4490;49.072;8.804;2022-11-30T17:56:13;7.90;99.90
8910;DHT22;4490;49.072;8.804;2022-11-30T17:58:41;7.90;99.90
8910;DHT22;4490;49.072;8.804;2022-11-30T18:01:23;7.90;99.90
8910;DHT22;4490;49.072;8.804;2022-11-30T18:03:49;7.90;99.90
8910;DHT22;4490;49.072;8.804;2022-11-30T18:06:17;7.90;99.90
8910;DHT22;4490;49.072;8.804;2022-11-30T18:08:43;7.90;99.90
8910;DHT22;4490;49.072;8.804;2022-11-30T18:11:10;7.90;99.90
8910;DHT22;4490;49.072;8.804;2022-11-30T18:13:36;7.90;99.90
8910;DHT22;4490;49.072;8.804;2022-11-30T18:16:15;7.90;99.90
8910;DHT22;4490;49.072;8.804;2022-11-30T18:18:41;7.90;99.90
8910;DHT22;4490;49.072;8.804;2022-11-30T18:21:09;7.80;99.90
8910;DHT22;4490;49.072;8.804;2022-11-30T18:23:37;7.80;99.90
8910;DHT22;4490;49.072;8.804;2022-11-30T18:26:06;7.80;99.90
8910;DHT22;4490;49.072;8.804;2022-11-30T18:28:33;7.80;99.90
8910;DHT22;4490;49.072;8.804;2022-11-30T18:30:59;7.80;99.90
8910;DHT22;4490;49.072;8.804;2022-11-30T18:33:25;7.80;99.90
8910;DHT22;4490;49.072;8.804;2022-11-30T18:35:50;7.80;99.90
8910;DHT22;4490;49.072;8.804;2022-11-30T18:38:17;7.70;99.90
8910;DHT22;4490;49.072;8.804;2022-11-30T18:40:43;7.70;99.90
8910;DHT22;4490;49.072;8.804;2022-11-30T18:43:10;7.70;99.90
8910;DHT22;4490;49.072;8.804;2022-11-30T18:45:35;7.70;99.90
8910;DHT22;4490;49.072;8.804;2022-11-30T18:48:03;7.60;99.90
8910;DHT22;4490;49.072;8.804;2022-11-30T18:50:28;7.70;99.90